Time;durP1;ratioP1;P1;durP2;ratioP2;P2;SDS_P1;SDS_P2;PMS_P1;PMS_P2;Temp;Humidity;BMP_temperature;BMP_pressure;BME280_temperature;BME280_humidity;BME280_pressure;Samples;Min_cycle;Max_cycle;Signal;HPM_P1;HPM_P2
2023/02/10 00:02:02;;;;;;;43.90;25.20;;;;;;;-4.32;100.00;102271.02;109254;1254;67086;-54
2023/02/10 00:04:30;;;;;;;47.30;26.30;;;;;;;-4.34;100.00;102268.17;109253;1253;72284;-56
2023/02/10 00:07:03;;;;;;;50.30;28.70;;;;;;;-4.35;100.00;102269.73;109233;1253;62988;-56
2023/02/10 00:09:32;;;;;;;53.00;29.10;;;;;;;-4.35;100.00;102270.08;109300;1256;60245;-54
2023/02/10 00:12:01;;;;;;;46.80;26.60;;;;;;;-4.36;100.00;102267.52;109233;1254;74806;-55
2023/02/10 00:14:29;;;;;;;43.50;25.80;;;;;;;-4.36;100.00;102263.95;109273;1253;67436;-57
2023/02/10 00:16:59;;;;;;;43.70;25.30;;;;;;;-4.35;100.00;102260.91;109291;1254;72521;-54
2023/02/10 00:19:28;;;;;;;44.20;25.50;;;;;;;-4.36;100.00;102254.63;109232;1254;61872;-55
2023/02/10 00:21:57;;;;;;;45.80;26.20;;;;;;;-4.37;100.00;102254.65;109268;1254;59948;-55
2023/02/10 00:24:26;;;;;;;46.40;27.30;;;;;;;-4.37;100.00;102251.45;109253;1254;75243;-55
2023/02/10 00:26:55;;;;;;;43.10;27.10;;;;;;;-4.38;100.00;102246.38;109269;1254;67907;-57
2023/02/10 00:29:24;;;;;;;40.70;24.50;;;;;;;-4.38;100.00;102243.69;109246;1254;72210;-55
2023/02/10 00:31:55;;;;;;;48.10;27.70;;;;;;;-4.39;100.00;102240.48;109013;1254;61957;-54
2023/02/10 00:34:24;;;;;;;45.50;26.40;;;;;;;-4.39;100.00;102239.45;109213;1253;60571;-57
2023/02/10 00:36:52;;;;;;;50.40;28.30;;;;;;;-4.40;100.00;102238.29;109352;1253;74418;-57
2023/02/10 00:39:21;;;;;;;54.50;30.00;;;;;;;-4.41;100.00;102239.81;109050;1260;66744;-54
2023/02/10 00:41:49;;;;;;;52.70;28.90;;;;;;;-4.40;100.00;102238.79;109304;1254;72935;-55
2023/02/10 00:44:18;;;;;;;52.90;27.30;;;;;;;-4.39;100.00;102234.36;109019;1255;60490;-57
2023/02/10 00:46:46;;;;;;;48.20;27.60;;;;;;;-4.38;100.00;102234.34;109243;1254;59912;-55
2023/02/10 00:49:15;;;;;;;51.20;27.50;;;;;;;-4.38;100.00;102232.98;109159;1254;73415;-55
2023/02/10 00:51:44;;;;;;;47.60;27.40;;;;;;;-4.40;100.00;102233.68;109101;1254;68031;-55
2023/02/10 00:54:12;;;;;;;43.70;27.00;;;;;;;-4.40;100.00;102233.18;109245;1253;72897;-56
2023/02/10 00:56:40;;;;;;;44.10;26.00;;;;;;;-4.41;100.00;102235.41;109215;1254;61129;-54
2023/02/10 00:59:12;;;;;;;43.90;26.10;;;;;;;-4.43;100.00;102235.96;109222;1252;61133;-57
2023/02/10 01:01:41;;;;;;;49.20;27.20;;;;;;;-4.44;100.00;102236.16;109161;1254;73561;-54
2023/02/10 01:04:09;;;;;;;50.30;28.20;;;;;;;-4.45;100.00;102236.88;109113;1254;68349;-57
2023/02/10 01:06:39;;;;;;;48.80;28.20;;;;;;;-4.48;100.00;102237.27;109120;1254;74220;-54
2023/02/10 01:09:09;;;;;;;59.30;30.80;;;;;;;-4.50;100.00;102239.02;109140;1254;60596;-55
2023/02/10 01:11:38;;;;;;;54.00;30.20;;;;;;;-4.51;100.00;102238.21;109173;1254;61151;-54
2023/02/10 01:14:06;;;;;;;46.50;26.90;;;;;;;-4.53;100.00;102238.59;109177;1254;74809;-55
2023/02/10 01:16:35;;;;;;;51.90;27.60;;;;;;;-4.55;100.00;102234.73;109155;1254;68331;-55
2023/02/10 01:19:03;;;;;;;47.20;28.00;;;;;;;-4.56;100.00;102234.08;109090;1254;73593;-57
2023/02/10 01:21:32;;;;;;;50.80;27.70;;;;;;;-4.58;100.00;102234.14;109190;1254;61392;-54
2023/02/10 01:24:00;;;;;;;43.20;25.10;;;;;;;-4.61;100.00;102236.95;109264;1254;60735;-54
2023/02/10 01:26:33;;;;;;;48.00;27.00;;;;;;;-4.70;100.00;102231.37;109137;1254;74091;-56
2023/02/10 01:29:02;;;;;;;51.00;28.60;;;;;;;-4.79;100.00;102227.67;109113;1254;68017;-57
2023/02/10 01:31:32;;;;;;;54.10;30.00;;;;;;;-4.86;100.00;102229.38;109247;1254;72712;-54
2023/02/10 01:34:01;;;;;;;42.90;23.30;;;;;;;-4.92;100.00;102230.36;109208;1254;59676;-56
2023/02/10 01:36:29;;;;;;;40.90;22.70;;;;;;;-5.00;100.00;102232.91;109214;1254;61803;-54
2023/02/10 01:38:58;;;;;;;38.90;23.80;;;;;;;-5.09;100.00;102235.33;108977;1254;73174;-55
2023/02/10 01:41:26;;;;;;;46.00;25.10;;;;;;;-5.17;100.00;102236.02;109213;1254;67059;-54
2023/02/10 01:44:03;;;;;;;48.70;26.70;;;;;;;-5.23;100.00;102238.34;108959;1254;72740;-54
2023/02/10 01:46:33;;;;;;;38.90;23.60;;;;;;;-5.26;100.00;102238.05;109154;1254;61204;-57
2023/02/10 01:49:09;;;;;;;;;;;;;;;-5.26;100.00;102236.55;109220;1254;60293;-54
2023/02/10 01:51:49;;;;;;;42.20;23.50;;;;;;;-5.28;100.00;102230.14;109073;1254;73906;-57
2023/02/10 01:54:20;;;;;;;46.20;25.40;;;;;;;-5.31;100.00;102228.00;109191;1254;67003;-56
2023/02/10 01:56:49;;;;;;;;;;;;;;;-5.33;100.00;102230.60;109354;1253;73791;-54
2023/02/10 01:59:17;;;;;;;50.10;25.00;;;;;;;-5.34;100.00;102233.00;109156;1254;61528;-54
2023/02/10 02:01:46;;;;;;;46.70;24.50;;;;;;;-5.36;100.00;102234.40;109036;1254;60871;-54
2023/02/10 02:04:14;;;;;;;46.70;25.10;;;;;;;-5.36;100.00;102239.98;109156;1254;75122;-54
2023/02/10 02:06:42;;;;;;;44.30;24.30;;;;;;;-5.37;100.00;102241.17;109099;1257;68003;-56
2023/02/10 02:09:11;;;;;;;47.00;26.80;;;;;;;-5.37;100.00;102243.21;109272;1254;72030;-57
2023/02/10 02:11:55;;;;;;;45.70;24.10;;;;;;;-5.37;100.00;102245.25;109169;1254;59914;-54
2023/02/10 02:14:53;;;;;;;43.50;23.40;;;;;;;-5.38;100.00;102245.08;109159;1253;60275;-55
2023/02/10 02:17:37;;;;;;;38.50;22.10;;;;;;;-5.41;100.00;102248.38;109147;1254;75112;-54
2023/02/10 02:20:42;;;;;;;38.50;21.70;;;;;;;-5.43;100.00;102246.73;109282;1254;66971;-54
2023/02/10 02:23:32;;;;;;;49.20;25.50;;;;;;;-5.46;100.00;102247.45;109208;1254;72985;-55
2023/02/10 02:26:34;;;;;;;52.50;28.00;;;;;;;-5.48;100.00;102245.48;109098;1253;62712;-55
2023/02/10 02:29:26;;;;;;;51.80;26.10;;;;;;;-5.50;100.00;102238.39;109244;1254;60051;-54
2023/02/10 02:32:01;;;;;;;47.80;26.90;;;;;;;-5.53;100.00;102235.73;109070;1254;74799;-57
2023/02/10 02:34:47;;;;;;;46.00;26.90;;;;;;;-5.55;100.00;102232.90;109079;1254;68003;-54
2023/02/10 02:37:23;;;;;;;49.50;24.80;;;;;;;-5.56;100.00;102233.61;109036;1254;73966;-54
2023/02/10 02:39:52;;;;;;;47.60;27.00;;;;;;;-5.57;100.00;102237.70;108984;1254;61267;-54
2023/02/10 02:42:27;;;;;;;44.10;25.10;;;;;;;-5.60;100.00;102239.97;109162;1254;59314;-55
2023/02/10 02:45:00;;;;;;;45.10;25.40;;;;;;;-5.64;100.00;102242.73;108914;1254;75315;-54
2023/02/10 02:47:49;;;;;;;48.10;26.70;;;;;;;-5.70;100.00;102239.47;108998;1254;68427;-54
2023/02/10 02:50:54;;;;;;;53.50;28.20;;;;;;;-5.76;100.00;102235.01;109107;1254;72294;-54
2023/02/10 02:53:53;;;;;;;50.40;28.10;;;;;;;-5.81;100.00;102236.14;109158;1254;61828;-56
2023/02/10 02:56:29;;;;;;;47.40;26.00;;;;;;;-5.84;100.00;102238.89;109111;1254;60951;-58
2023/02/10 02:59:01;;;;;;;53.00;27.30;;;;;;;-5.86;100.00;102240.47;109059;1254;74734;-55
2023/02/10 03:01:32;;;;;;;48.80;26.30;;;;;;;-5.89;100.00;102238.32;109159;1254;67042;-57
2023/02/10 03:04:00;;;;;;;41.90;23.50;;;;;;;-5.90;100.00;102240.38;108911;1254;73288;-57
2023/02/10 03:06:29;;;;;;;46.40;25.50;;;;;;;-5.92;100.00;102236.67;109111;1254;61647;-55
2023/02/10 03:08:57;;;;;;;46.40;24.40;;;;;;;-5.94;100.00;102241.16;109191;1254;60458;-55
2023/02/10 03:11:26;;;;;;;49.00;25.10;;;;;;;-5.96;100.00;102242.20;109163;1254;74785;-57
2023/02/10 03:13:54;;;;;;;49.80;26.80;;;;;;;-5.99;100.00;102239.55;109070;1254;68315;-55
2023/02/10 03:16:22;;;;;;;50.00;29.40;;;;;;;-6.01;100.00;102238.40;109171;1253;74117;-55
2023/02/10 03:18:51;;;;;;;49.30;27.00;;;;;;;-6.02;100.00;102235.88;109175;1253;62925;-55
2023/02/10 03:21:19;;;;;;;49.50;26.90;;;;;;;-6.03;100.00;102234.19;109133;1253;60237;-57
2023/02/10 03:23:48;;;;;;;55.80;28.90;;;;;;;-6.02;100.00;102234.86;109144;1254;73481;-55
2023/02/10 03:26:16;;;;;;;50.80;27.70;;;;;;;-6.03;100.00;102230.30;109106;1254;68011;-56
2023/02/10 03:28:45;;;;;;;50.50;28.10;;;;;;;-6.03;100.00;102226.74;109171;1254;73298;-55
2023/02/10 03:31:14;;;;;;;47.10;24.00;;;;;;;-6.03;100.00;102225.74;109168;1254;61090;-55
2023/02/10 03:33:45;;;;;;;50.80;27.70;;;;;;;-6.07;100.00;102225.30;109110;1254;61340;-56
2023/02/10 03:36:13;;;;;;;47.00;24.60;;;;;;;-6.10;100.00;102221.64;109137;1254;75169;-55
2023/02/10 03:38:42;;;;;;;48.70;25.20;;;;;;;-6.13;100.00;102218.66;109192;1254;67174;-54
2023/02/10 03:41:10;;;;;;;52.00;28.70;;;;;;;-6.16;100.00;102218.53;109169;1254;73688;-54
2023/02/10 03:43:40;;;;;;;52.60;28.90;;;;;;;-6.18;100.00;102222.27;109054;1254;62017;-55
2023/02/10 03:46:09;;;;;;;48.20;25.40;;;;;;;-6.19;100.00;102221.45;109124;1254;61166;-54
2023/02/10 03:48:37;;;;;;;54.30;29.00;;;;;;;-6.19;100.00;102221.79;109105;1254;74946;-54
2023/02/10 03:51:06;;;;;;;47.10;26.20;;;;;;;-6.18;100.00;102220.42;109178;1254;67004;-55
2023/02/10 03:53:35;;;;;;;48.00;26.90;;;;;;;-6.16;100.00;102223.10;109125;1254;73633;-54
2023/02/10 03:56:04;;;;;;;49.70;27.30;;;;;;;-6.14;100.00;102226.62;109159;1254;61616;-57
2023/02/10 03:58:33;;;;;;;46.20;26.90;;;;;;;-6.12;100.00;102228.77;109166;1254;58960;-55
2023/02/10 04:01:08;;;;;;;41.20;23.10;;;;;;;-6.11;100.00;102228.25;109202;1254;74798;-55
2023/02/10 04:03:36;;;;;;;46.70;25.20;;;;;;;-6.13;100.00;102226.95;109165;1253;68197;-56
2023/02/10 04:06:05;;;;;;;45.30;24.10;;;;;;;-6.15;100.00;102228.16;109163;1253;72143;-55
2023/02/10 04:08:33;;;;;;;48.70;27.40;;;;;;;-6.17;100.00;102227.35;109210;1253;61440;-55
2023/02/10 04:11:22;;;;;;;52.30;28.50;;;;;;;-6.18;100.00;102234.65;109162;1253;62373;-55
2023/02/10 04:13:50;;;;;;;49.50;28.60;;;;;;;-6.19;100.00;102238.20;109224;1253;75255;-55
2023/02/10 04:16:22;;;;;;;53.50;29.70;;;;;;;-6.20;100.00;102242.80;109300;1253;67988;-55
2023/02/10 04:18:50;;;;;;;53.30;28.80;;;;;;;-6.22;100.00;102239.29;109253;1253;72948;-55
2023/02/10 04:21:18;;;;;;;50.00;27.20;;;;;;;-6.24;100.00;102243.73;109165;1253;62196;-55
2023/02/10 04:23:47;;;;;;;49.90;28.60;;;;;;;-6.26;100.00;102243.75;109197;1253;60255;-55
2023/02/10 04:26:15;;;;;;;49.40;26.70;;;;;;;-6.29;100.00;102242.11;109197;1253;74816;-55
2023/02/10 04:28:43;;;;;;;51.20;28.30;;;;;;;-6.31;100.00;102242.30;109237;1253;68039;-55
2023/02/10 04:31:12;;;;;;;48.80;26.10;;;;;;;-6.35;100.00;102245.25;109172;1253;72763;-56
2023/02/10 04:33:40;;;;;;;50.50;27.80;;;;;;;-6.42;100.00;102236.58;109161;1254;61681;-54
2023/02/10 04:36:09;;;;;;;63.10;35.80;;;;;;;-6.49;100.00;102239.06;109205;1254;60116;-55
2023/02/10 04:38:37;;;;;;;52.20;28.40;;;;;;;-6.57;100.00;102243.93;109242;1253;73490;-55
2023/02/10 04:41:05;;;;;;;53.40;30.00;;;;;;;-6.65;100.00;102239.31;109209;1253;68070;-58
2023/02/10 04:43:34;;;;;;;55.80;29.50;;;;;;;-6.71;100.00;102238.39;109143;1253;72452;-55
2023/02/10 04:46:03;;;;;;;55.80;30.40;;;;;;;-6.77;100.00;102243.23;109184;1254;61288;-55
2023/02/10 04:48:32;;;;;;;48.70;27.60;;;;;;;-6.85;100.00;102244.36;109195;1253;60383;-55
2023/02/10 04:51:06;;;;;;;53.30;27.60;;;;;;;-6.95;100.00;102245.01;109207;1253;73794;-57
2023/02/10 04:53:36;;;;;;;52.90;27.60;;;;;;;-7.07;100.00;102246.70;109203;1253;69582;-55
2023/02/10 04:56:05;;;;;;;60.40;30.50;;;;;;;-7.18;100.00;102248.36;109218;1253;72632;-55
2023/02/10 04:58:33;;;;;;;66.80;34.40;;;;;;;-7.27;100.00;102248.16;109195;1254;63145;-57
2023/02/10 05:01:02;;;;;;;66.20;32.70;;;;;;;-7.36;100.00;102254.67;109218;1253;61665;-55
2023/02/10 05:03:31;;;;;;;63.30;30.80;;;;;;;-7.43;100.00;102254.09;109138;1253;74425;-54
2023/02/10 05:05:59;;;;;;;56.90;30.80;;;;;;;-7.47;100.00;102254.15;109233;1253;66996;-55
2023/02/10 05:08:28;;;;;;;54.60;29.20;;;;;;;-7.50;100.00;102252.50;109201;1254;73487;-55
2023/02/10 05:10:56;;;;;;;60.10;30.40;;;;;;;-7.52;100.00;102250.34;109131;1253;61120;-54
2023/02/10 05:13:24;;;;;;;57.30;30.80;;;;;;;-7.52;100.00;102249.31;109134;1254;61334;-56
2023/02/10 05:15:54;;;;;;;53.60;29.00;;;;;;;-7.50;100.00;102255.20;109140;1254;73608;-54
2023/02/10 05:18:22;;;;;;;61.40;32.70;;;;;;;-7.48;100.00;102259.23;109220;1253;67030;-54
2023/02/10 05:20:51;;;;;;;60.40;31.70;;;;;;;-7.46;100.00;102257.51;109144;1253;72670;-54
2023/02/10 05:23:19;;;;;;;65.40;32.00;;;;;;;-7.44;100.00;102258.84;109191;1253;59241;-57
2023/02/10 05:25:48;;;;;;;60.80;31.70;;;;;;;-7.42;100.00;102259.66;109194;1254;60270;-54
2023/02/10 05:28:16;;;;;;;56.80;29.40;;;;;;;-7.38;100.00;102261.64;109202;1253;73452;-55
2023/02/10 05:30:46;;;;;;;51.70;27.60;;;;;;;-7.31;100.00;102261.89;109176;1253;68372;-54
2023/02/10 05:33:14;;;;;;;53.50;29.00;;;;;;;-7.21;100.00;102257.36;109136;1256;73639;-54
2023/02/10 05:35:43;;;;;;;55.40;27.80;;;;;;;-7.09;100.00;102255.69;109208;1254;60988;-54
2023/02/10 05:38:11;;;;;;;58.50;30.50;;;;;;;-6.97;100.00;102257.88;109249;1253;59568;-54
2023/02/10 05:40:40;;;;;;;54.70;28.10;;;;;;;-6.83;100.00;102261.91;109174;1253;73689;-55
2023/02/10 05:43:09;;;;;;;61.10;30.60;;;;;;;-6.67;100.00;102261.16;109192;1253;67768;-55
2023/02/10 05:45:38;;;;;;;80.00;39.90;;;;;;;-6.48;100.00;102260.69;109241;1253;73662;-54
2023/02/10 05:48:07;;;;;;;78.40;38.60;;;;;;;-6.19;100.00;102263.78;109201;1253;62752;-55
2023/02/10 05:50:36;;;;;;;76.10;38.80;;;;;;;-5.76;100.00;102259.40;109166;1253;59882;-56
2023/02/10 05:53:14;;;;;;;98.50;48.00;;;;;;;-5.30;100.00;102257.11;109262;1253;74796;-54
2023/02/10 05:55:45;;;;;;;115.20;53.00;;;;;;;-5.09;100.00;102260.07;109283;1253;68105;-55
2023/02/10 05:58:14;;;;;;;109.10;51.80;;;;;;;-5.05;100.00;102259.48;109171;1253;72512;-57
2023/02/10 06:00:42;;;;;;;94.20;50.30;;;;;;;-5.05;100.00;102257.45;109168;1253;61666;-55
2023/02/10 06:03:11;;;;;;;104.70;57.20;;;;;;;-5.06;100.00;102260.02;109272;1253;59221;-55
2023/02/10 06:05:39;;;;;;;76.40;41.40;;;;;;;-5.08;100.00;102257.50;109272;1253;74820;-54
2023/02/10 06:08:08;;;;;;;64.20;36.40;;;;;;;-5.08;100.00;102259.36;109239;1253;68047;-57
2023/02/10 06:10:36;;;;;;;60.40;32.10;;;;;;;-5.08;100.00;102259.38;109150;1254;73659;-55
2023/02/10 06:13:05;;;;;;;62.90;34.10;;;;;;;-5.08;100.00;102259.37;109183;1254;62726;-55
2023/02/10 06:15:34;;;;;;;60.90;33.20;;;;;;;-5.04;100.00;102256.23;109216;1253;61081;-54
2023/02/10 06:18:03;;;;;;;66.40;35.40;;;;;;;-4.97;100.00;102257.10;109212;1253;73640;-57
2023/02/10 06:20:32;;;;;;;73.90;39.60;;;;;;;-4.88;100.00;102258.76;109193;1253;66689;-59
2023/02/10 06:23:01;;;;;;;84.40;44.20;;;;;;;-4.80;100.00;102256.88;109243;1253;73124;-54
2023/02/10 06:25:29;;;;;;;80.10;42.20;;;;;;;-4.74;100.00;102256.23;109214;1253;61149;-54
2023/02/10 06:27:57;;;;;;;77.50;38.80;;;;;;;-4.70;100.00;102253.08;109207;1253;60317;-54
2023/02/10 06:30:26;;;;;;;71.50;37.50;;;;;;;-4.63;100.00;102252.91;109111;1253;75586;-57
2023/02/10 06:32:55;;;;;;;94.00;46.70;;;;;;;-4.56;100.00;102249.88;109167;1253;67038;-54
2023/02/10 06:35:23;;;;;;;71.70;39.00;;;;;;;-4.49;100.00;102252.58;109200;1253;73837;-54
2023/02/10 06:37:52;;;;;;;100.90;47.80;;;;;;;-4.35;100.00;102254.61;109127;1253;60679;-54
2023/02/10 06:40:21;;;;;;;82.90;40.50;;;;;;;-4.18;100.00;102252.33;109133;1253;60200;-56
2023/02/10 06:42:49;;;;;;;73.40;40.50;;;;;;;-3.99;100.00;102249.80;109167;1253;74584;-55
2023/02/10 06:45:18;;;;;;;62.20;37.40;;;;;;;-3.80;100.00;102253.34;109185;1253;66804;-55
2023/02/10 06:47:46;;;;;;;56.50;33.60;;;;;;;-3.59;100.00;102254.49;109200;1253;72612;-55
2023/02/10 06:50:17;;;;;;;55.80;32.60;;;;;;;-3.42;100.00;102256.55;109163;1253;59623;-56
2023/02/10 06:52:46;;;;;;;51.00;29.70;;;;;;;-3.34;100.00;102252.91;109122;1253;61448;-54
2023/02/10 06:55:15;;;;;;;49.00;31.30;;;;;;;-3.34;100.00;102253.41;109247;1253;73893;-55
2023/02/10 06:57:43;;;;;;;51.40;31.10;;;;;;;-3.33;100.00;102251.54;109185;1253;67154;-55
2023/02/10 07:00:13;;;;;;;56.20;33.80;;;;;;;-3.32;100.00;102252.02;109136;1253;72980;-57
2023/02/10 07:02:43;;;;;;;58.30;35.40;;;;;;;-3.35;100.00;102250.40;109141;1253;61538;-55
2023/02/10 07:05:11;;;;;;;59.80;36.30;;;;;;;-3.36;100.00;102248.05;109194;1253;60302;-55
2023/02/10 07:07:40;;;;;;;65.00;36.20;;;;;;;-3.32;100.00;102246.92;109204;1253;73289;-56
2023/02/10 07:10:08;;;;;;;57.30;36.90;;;;;;;-3.29;100.00;102244.78;109096;1254;68063;-56
2023/02/10 07:12:37;;;;;;;58.30;34.50;;;;;;;-3.26;100.00;102244.51;109132;1253;73995;-55
2023/02/10 07:15:06;;;;;;;57.10;34.30;;;;;;;-3.23;100.00;102241.54;109175;1253;61983;-54
2023/02/10 07:17:36;;;;;;;56.00;34.10;;;;;;;-3.21;100.00;102241.64;109140;1254;61495;-55
2023/02/10 07:20:05;;;;;;;54.30;31.90;;;;;;;-3.18;100.00;102236.98;109188;1253;73332;-57
2023/02/10 07:22:33;;;;;;;53.60;32.30;;;;;;;-3.20;100.00;102238.40;109233;1253;68056;-59
2023/02/10 07:25:02;;;;;;;50.20;30.70;;;;;;;-3.26;100.00;102235.83;109386;1252;73515;-56
2023/02/10 07:27:30;;;;;;;52.90;31.30;;;;;;;-3.29;100.00;102238.48;109261;1253;60010;-57
2023/02/10 07:29:59;;;;;;;55.20;32.10;;;;;;;-3.33;100.00;102243.35;109194;1253;61024;-59
2023/02/10 07:32:27;;;;;;;59.90;34.30;;;;;;;-3.35;100.00;102245.99;109263;1253;73495;-59
2023/02/10 07:34:56;;;;;;;62.00;34.90;;;;;;;-3.36;100.00;102245.00;109239;1253;66992;-56
2023/02/10 07:37:26;;;;;;;53.70;32.30;;;;;;;-3.34;100.00;102243.57;109238;1253;73354;-56
2023/02/10 07:39:54;;;;;;;59.30;33.70;;;;;;;-3.32;100.00;102241.98;109202;1253;60989;-57
2023/02/10 07:42:23;;;;;;;60.60;33.70;;;;;;;-3.24;100.00;102238.84;109195;1253;60931;-56
2023/02/10 07:45:15;;;;;;;55.60;32.30;;;;;;;-3.05;100.00;102237.25;109177;1253;74970;-56
2023/02/10 07:47:43;;;;;;;58.80;36.50;;;;;;;-2.84;100.00;102236.79;109263;1253;65748;-57
2023/02/10 07:50:12;;;;;;;54.80;34.70;;;;;;;-2.58;100.00;102238.36;109282;1253;71654;-56
2023/02/10 07:52:43;;;;;;;53.10;32.80;;;;;;;-2.22;100.00;102241.76;109280;1253;61834;-56
2023/02/10 07:55:11;;;;;;;51.90;30.30;;;;;;;-1.83;100.00;102236.81;109322;1253;59861;-56
2023/02/10 07:57:41;;;;;;;51.40;32.60;;;;;;;-1.47;100.00;102231.26;109273;1253;73103;-57
2023/02/10 08:00:12;;;;;;;54.10;32.20;;;;;;;-1.09;100.00;102233.05;109246;1253;68053;-58
2023/02/10 08:02:41;;;;;;;50.10;31.10;;;;;;;-0.68;100.00;102234.31;109243;1253;73613;-56
2023/02/10 08:05:10;;;;;;;47.50;30.80;;;;;;;-0.25;100.00;102229.67;109264;1253;60801;-56
2023/02/10 08:07:39;;;;;;;40.80;26.70;;;;;;;0.29;100.00;102226.63;109204;1254;61046;-58
2023/02/10 08:10:12;;;;;;;35.10;23.60;;;;;;;0.92;100.00;102224.96;109230;1253;74030;-58
2023/02/10 08:12:40;;;;;;;41.40;25.60;;;;;;;1.58;100.00;102219.00;109398;1253;67271;-56
2023/02/10 08:15:10;;;;;;;43.90;27.30;;;;;;;2.22;100.00;102212.81;109283;1253;72682;-56
2023/02/10 08:17:38;;;;;;;41.20;26.20;;;;;;;2.82;100.00;102210.13;109246;1252;59231;-56
2023/02/10 08:20:07;;;;;;;39.80;26.90;;;;;;;3.40;100.00;102207.52;109259;1253;61576;-58
2023/02/10 08:22:36;;;;;;;42.70;28.40;;;;;;;3.88;100.00;102205.02;109296;1253;75241;-56
2023/02/10 08:25:05;;;;;;;40.20;25.60;;;;;;;4.36;100.00;102205.76;109226;1253;67140;-56
2023/02/10 08:27:34;;;;;;;39.60;28.00;;;;;;;4.74;100.00;102204.55;109230;1252;73714;-56
2023/02/10 08:30:05;;;;;;;42.80;29.00;;;;;;;5.05;100.00;102198.66;109254;1253;61751;-57
2023/02/10 08:32:34;;;;;;;45.90;32.80;;;;;;;5.39;100.00;102193.63;109303;1253;61338;-55
2023/02/10 08:35:03;;;;;;;45.90;31.70;;;;;;;5.71;100.00;102189.77;109389;1254;74817;-55
2023/02/10 08:37:33;;;;;;;46.20;31.20;;;;;;;5.95;99.79;102193.00;109189;1254;67194;-57
2023/02/10 08:40:03;;;;;;;38.00;26.10;;;;;;;6.13;92.86;102188.14;109177;1253;72638;-56
2023/02/10 08:42:34;;;;;;;28.80;20.10;;;;;;;6.21;86.95;102185.69;109202;1253;61268;-55
2023/02/10 08:45:02;;;;;;;24.90;18.50;;;;;;;6.31;82.96;102185.81;109215;1254;60310;-55
2023/02/10 08:47:33;;;;;;;26.50;20.60;;;;;;;6.43;77.36;102185.00;109188;1253;74475;-56
2023/02/10 08:50:01;;;;;;;26.10;18.40;;;;;;;6.45;72.53;102179.10;109228;1253;68338;-55
2023/02/10 08:52:31;;;;;;;18.20;13.40;;;;;;;6.49;71.84;102178.65;109256;1253;73749;-56
2023/02/10 08:55:01;;;;;;;19.70;14.40;;;;;;;6.56;67.61;102174.21;109238;1253;61682;-55
2023/02/10 08:57:30;;;;;;;16.50;12.10;;;;;;;6.63;66.57;102169.54;109233;1253;60124;-56
2023/02/10 08:59:59;;;;;;;16.50;12.10;;;;;;;6.68;63.23;102163.98;109108;1254;73574;-55
2023/02/10 09:02:27;;;;;;;15.40;11.50;;;;;;;6.68;62.08;102155.71;109258;1254;68037;-55
2023/02/10 09:04:56;;;;;;;14.70;10.20;;;;;;;6.70;61.08;102148.16;109029;1255;73922;-57
2023/02/10 09:07:38;;;;;;;15.70;10.30;;;;;;;6.73;58.85;102140.66;108901;1256;60132;-56
2023/02/10 09:10:10;;;;;;;15.50;10.70;;;;;;;6.81;58.24;102135.45;108976;1256;60108;-55
2023/02/10 09:12:40;;;;;;;12.70;8.80;;;;;;;6.93;57.29;102135.70;109099;1255;74544;-55
2023/02/10 09:15:09;;;;;;;10.50;7.50;;;;;;;7.09;54.12;102130.96;109039;1255;66860;-56
2023/02/10 09:17:37;;;;;;;14.80;7.80;;;;;;;7.15;50.75;102124.49;109004;1255;73668;-56
2023/02/10 09:20:06;;;;;;;10.90;7.70;;;;;;;6.96;48.78;102118.04;109039;1256;60763;-55
2023/02/10 09:22:35;;;;;;;11.90;8.30;;;;;;;6.75;48.69;102112.20;108903;1256;61275;-56
2023/02/10 09:25:04;;;;;;;10.30;7.20;;;;;;;6.67;48.77;102109.20;108946;1256;73821;-55
2023/02/10 09:27:32;;;;;;;12.10;7.90;;;;;;;6.52;48.07;102104.90;108972;1256;65857;-55
2023/02/10 09:30:01;;;;;;;11.70;8.00;;;;;;;6.30;48.25;102107.15;108980;1256;73665;-55
2023/02/10 09:32:30;;;;;;;14.60;8.60;;;;;;;6.26;49.58;102101.55;109003;1256;60057;-55
2023/02/10 09:34:59;;;;;;;15.20;9.40;;;;;;;6.34;50.50;102097.52;108961;1256;61660;-55
2023/02/10 09:37:28;;;;;;;12.50;8.40;;;;;;;6.49;50.27;102092.13;108897;1256;74804;-55
2023/02/10 09:39:56;;;;;;;12.70;8.70;;;;;;;6.64;49.44;102092.96;108965;1256;68451;-56
2023/02/10 09:43:17;;;;;;;13.80;9.40;;;;;;;6.69;48.58;102092.23;108977;1256;73849;-56
2023/02/10 09:45:46;;;;;;;14.00;9.30;;;;;;;6.76;48.42;102082.73;108781;1256;61463;-58
2023/02/10 09:48:35;;;;;;;12.50;8.10;;;;;;;6.87;47.59;102078.16;108987;1256;60141;-55
2023/02/10 09:51:12;;;;;;;13.80;9.20;;;;;;;6.87;46.76;102074.55;108863;1256;73739;-55
2023/02/10 09:53:40;;;;;;;13.30;9.30;;;;;;;6.82;46.11;102075.75;108957;1256;66946;-56
2023/02/10 09:56:13;;;;;;;12.90;8.50;;;;;;;6.68;46.39;102070.05;108969;1256;72648;-57
2023/02/10 09:58:44;;;;;;;13.50;9.90;;;;;;;6.57;47.11;102073.45;108883;1256;60443;-55
2023/02/10 10:01:23;;;;;;;14.40;9.40;;;;;;;6.44;46.93;102067.65;109041;1255;60007;-58
2023/02/10 10:04:06;;;;;;;11.90;8.20;;;;;;;6.35;47.85;102070.54;109114;1254;74873;-55
2023/02/10 10:06:37;;;;;;;11.80;7.30;;;;;;;6.44;46.59;102071.96;109165;1254;67018;-55
2023/02/10 10:09:08;;;;;;;14.90;9.40;;;;;;;6.38;45.33;102070.36;108998;1254;72621;-55
2023/02/10 10:11:47;;;;;;;10.10;6.00;;;;;;;6.19;44.97;102070.01;109209;1254;59566;-55
2023/02/10 10:14:17;;;;;;;11.00;6.20;;;;;;;6.10;44.71;102067.50;109171;1257;61397;-56
2023/02/10 10:17:02;;;;;;;11.30;6.60;;;;;;;6.09;44.88;102062.23;109078;1254;74479;-56
2023/02/10 10:20:01;;;;;;;12.20;6.70;;;;;;;6.19;45.17;102055.70;108975;1254;287215;-56
2023/02/10 10:22:39;;;;;;;9.70;6.30;;;;;;;6.35;45.23;102047.07;109203;1254;72727;-55
2023/02/10 10:25:32;;;;;;;10.10;5.60;;;;;;;6.49;44.14;102042.20;109133;1254;59554;-58
2023/02/10 10:28:18;;;;;;;11.10;6.00;;;;;;;6.48;43.13;102036.94;109154;1254;60683;-55
2023/02/10 10:31:03;;;;;;;8.50;5.20;;;;;;;6.37;42.73;102036.40;108972;1258;73550;-55
2023/02/10 10:33:39;;;;;;;12.10;6.20;;;;;;;6.20;42.14;102029.70;109001;1256;68048;-55
2023/02/10 10:36:14;;;;;;;9.60;5.90;;;;;;;5.92;41.99;102029.40;108928;1255;73777;-57
2023/02/10 10:38:47;;;;;;;7.90;5.10;;;;;;;5.62;42.48;102023.59;108952;1255;60625;-57
2023/02/10 10:41:15;;;;;;;8.30;4.70;;;;;;;5.52;42.91;102023.75;108913;1255;61293;-54
2023/02/10 10:43:49;;;;;;;9.30;5.70;;;;;;;5.54;43.52;102023.09;109010;1254;74560;-54
2023/02/10 10:46:27;;;;;;;8.40;4.60;;;;;;;5.67;43.10;102023.80;109050;1255;67986;-56
2023/02/10 10:48:56;;;;;;;7.40;4.70;;;;;;;5.68;42.11;102013.67;109082;1255;72526;-54
2023/02/10 10:51:24;;;;;;;8.20;4.60;;;;;;;5.70;42.19;102014.59;109125;1254;59574;-54
2023/02/10 10:53:54;;;;;;;10.00;5.70;;;;;;;5.62;41.55;102011.17;109141;1255;59948;-55
2023/02/10 10:56:22;;;;;;;9.50;4.90;;;;;;;5.42;41.90;102008.44;109145;1254;74043;-57
2023/02/10 10:58:52;;;;;;;8.60;5.00;;;;;;;5.20;42.60;102007.21;109164;1254;68113;-54
2023/02/10 11:01:34;;;;;;;8.70;4.90;;;;;;;5.14;43.06;102003.29;109069;1254;72625;-55
2023/02/10 11:04:10;;;;;;;8.70;5.40;;;;;;;5.15;43.31;101995.80;109052;1254;60585;-55
2023/02/10 11:06:39;;;;;;;10.10;6.50;;;;;;;5.11;43.78;101990.20;109012;1254;60191;-55
2023/02/10 11:09:35;;;;;;;10.40;5.50;;;;;;;5.13;44.06;101984.23;109086;1254;74326;-54
2023/02/10 11:12:17;;;;;;;9.70;6.40;;;;;;;4.99;43.38;101983.10;109179;1255;66177;-54
2023/02/10 11:14:46;;;;;;;9.50;6.00;;;;;;;4.78;44.18;101977.85;108943;1254;72738;-54
2023/02/10 11:17:21;;;;;;;12.10;6.50;;;;;;;4.72;44.47;101976.30;109042;1254;60765;-57
2023/02/10 11:20:20;;;;;;;9.20;5.60;;;;;;;4.70;44.94;101981.51;109142;1254;61612;-55